sensor_id;sensor_type;location;lat;lon;timestamp;P1;durP1;ratioP1;P2;durP2;ratioP2
1136;SDS011;557;48.466;7.950;2022-10-18T00:00:25;4.20;;;2.97;;
1136;SDS011;557;48.466;7.950;2022-10-18T00:03:11;3.47;;;2.83;;
1136;SDS011;557;48.466;7.950;2022-10-18T00:05:57;3.00;;;2.50;;
1136;SDS011;557;48.466;7.950;2022-10-18T00:08:44;3.63;;;2.67;;
1136;SDS011;557;48.466;7.950;2022-10-18T00:11:30;3.77;;;3.37;;
1136;SDS011;557;48.466;7.950;2022-10-18T00:14:16;3.47;;;2.53;;
1136;SDS011;557;48.466;7.950;2022-10-18T00:17:01;3.70;;;2.97;;
1136;SDS011;557;48.466;7.950;2022-10-18T00:19:47;3.07;;;2.77;;
1136;SDS011;557;48.466;7.950;2022-10-18T00:22:33;3.20;;;2.90;;
1136;SDS011;557;48.466;7.950;2022-10-18T00:25:21;4.83;;;3.70;;
1136;SDS011;557;48.466;7.950;2022-10-18T00:28:07;3.60;;;2.67;;
1136;SDS011;557;48.466;7.950;2022-10-18T00:30:53;4.60;;;3.00;;
1136;SDS011;557;48.466;7.950;2022-10-18T00:33:38;6.10;;;3.17;;
1136;SDS011;557;48.466;7.950;2022-10-18T00:36:25;5.93;;;2.60;;
1136;SDS011;557;48.466;7.950;2022-10-18T00:39:13;4.63;;;3.10;;
1136;SDS011;557;48.466;7.950;2022-10-18T00:42:03;4.80;;;2.90;;
1136;SDS011;557;48.466;7.950;2022-10-18T00:45:08;5.43;;;3.10;;
1136;SDS011;557;48.466;7.950;2022-10-18T00:48:00;3.30;;;2.70;;
1136;SDS011;557;48.466;7.950;2022-10-18T00:50:48;3.50;;;2.63;;
1136;SDS011;557;48.466;7.950;2022-10-18T00:53:36;3.43;;;2.53;;
1136;SDS011;557;48.466;7.950;2022-10-18T00:56:22;3.77;;;3.10;;
1136;SDS011;557;48.466;7.950;2022-10-18T00:59:09;2.73;;;2.50;;
1136;SDS011;557;48.466;7.950;2022-10-18T01:01:57;5.07;;;2.90;;
1136;SDS011;557;48.466;7.950;2022-10-18T01:04:44;3.37;;;2.57;;
1136;SDS011;557;48.466;7.950;2022-10-18T01:07:33;4.00;;;2.90;;
1136;SDS011;557;48.466;7.950;2022-10-18T01:10:28;4.80;;;2.83;;
1136;SDS011;557;48.466;7.950;2022-10-18T01:13:23;3.07;;;2.63;;
1136;SDS011;557;48.466;7.950;2022-10-18T01:16:18;4.13;;;3.33;;
1136;SDS011;557;48.466;7.950;2022-10-18T01:19:11;3.80;;;3.10;;
1136;SDS011;557;48.466;7.950;2022-10-18T01:22:16;6.13;;;3.30;;
1136;SDS011;557;48.466;7.950;2022-10-18T01:25:11;4.20;;;3.00;;
1136;SDS011;557;48.466;7.950;2022-10-18T01:28:12;3.37;;;2.87;;
1136;SDS011;557;48.466;7.950;2022-10-18T01:31:12;6.47;;;2.77;;
1136;SDS011;557;48.466;7.950;2022-10-18T01:34:04;3.87;;;2.80;;
1136;SDS011;557;48.466;7.950;2022-10-18T01:36:54;3.47;;;2.77;;
1136;SDS011;557;48.466;7.950;2022-10-18T01:39:43;3.20;;;2.50;;
1136;SDS011;557;48.466;7.950;2022-10-18T01:42:31;3.57;;;2.53;;
1136;SDS011;557;48.466;7.950;2022-10-18T01:45:17;4.07;;;2.97;;
1136;SDS011;557;48.466;7.950;2022-10-18T01:48:06;3.07;;;2.60;;
1136;SDS011;557;48.466;7.950;2022-10-18T01:50:53;3.50;;;2.80;;
1136;SDS011;557;48.466;7.950;2022-10-18T01:53:38;2.87;;;2.40;;
1136;SDS011;557;48.466;7.950;2022-10-18T01:56:26;3.20;;;2.60;;
1136;SDS011;557;48.466;7.950;2022-10-18T01:59:21;3.77;;;3.10;;
1136;SDS011;557;48.466;7.950;2022-10-18T02:02:30;5.93;;;2.90;;
1136;SDS011;557;48.466;7.950;2022-10-18T02:05:27;5.37;;;2.63;;
1136;SDS011;557;48.466;7.950;2022-10-18T02:08:23;4.07;;;2.80;;
1136;SDS011;557;48.466;7.950;2022-10-18T02:11:14;3.90;;;2.50;;
1136;SDS011;557;48.466;7.950;2022-10-18T02:14:02;3.80;;;2.40;;
1136;SDS011;557;48.466;7.950;2022-10-18T02:16:52;6.17;;;2.63;;
1136;SDS011;557;48.466;7.950;2022-10-18T02:19:41;3.80;;;2.33;;
1136;SDS011;557;48.466;7.950;2022-10-18T02:22:31;2.70;;;2.30;;
1136;SDS011;557;48.466;7.950;2022-10-18T02:25:19;4.63;;;2.97;;
1136;SDS011;557;48.466;7.950;2022-10-18T02:28:08;5.50;;;2.57;;
1136;SDS011;557;48.466;7.950;2022-10-18T02:30:57;3.33;;;2.77;;
1136;SDS011;557;48.466;7.950;2022-10-18T02:33:52;3.23;;;2.60;;
1136;SDS011;557;48.466;7.950;2022-10-18T02:36:41;5.70;;;3.20;;
1136;SDS011;557;48.466;7.950;2022-10-18T02:39:33;3.93;;;2.53;;
1136;SDS011;557;48.466;7.950;2022-10-18T02:42:20;3.60;;;2.73;;
1136;SDS011;557;48.466;7.950;2022-10-18T02:45:06;2.60;;;2.30;;
1136;SDS011;557;48.466;7.950;2022-10-18T02:48:00;3.20;;;2.03;;
1136;SDS011;557;48.466;7.950;2022-10-18T02:50:46;3.73;;;2.70;;
1136;SDS011;557;48.466;7.950;2022-10-18T02:53:31;4.23;;;2.80;;
1136;SDS011;557;48.466;7.950;2022-10-18T02:56:18;6.10;;;2.60;;
1136;SDS011;557;48.466;7.950;2022-10-18T02:59:04;6.17;;;3.47;;
1136;SDS011;557;48.466;7.950;2022-10-18T03:01:50;3.30;;;2.80;;
1136;SDS011;557;48.466;7.950;2022-10-18T03:04:35;4.57;;;2.80;;
1136;SDS011;557;48.466;7.950;2022-10-18T03:07:21;2.93;;;2.43;;
1136;SDS011;557;48.466;7.950;2022-10-18T03:10:07;3.53;;;2.80;;
1136;SDS011;557;48.466;7.950;2022-10-18T03:12:55;2.60;;;2.17;;
1136;SDS011;557;48.466;7.950;2022-10-18T03:15:41;3.40;;;2.23;;
1136;SDS011;557;48.466;7.950;2022-10-18T03:18:26;4.20;;;3.23;;
1136;SDS011;557;48.466;7.950;2022-10-18T03:21:12;3.20;;;2.33;;
1136;SDS011;557;48.466;7.950;2022-10-18T03:23:57;3.40;;;2.53;;
1136;SDS011;557;48.466;7.950;2022-10-18T03:26:43;2.83;;;2.53;;
1136;SDS011;557;48.466;7.950;2022-10-18T03:29:30;4.37;;;3.10;;
1136;SDS011;557;48.466;7.950;2022-10-18T03:32:16;3.60;;;2.27;;
1136;SDS011;557;48.466;7.950;2022-10-18T03:35:02;3.27;;;2.80;;
1136;SDS011;557;48.466;7.950;2022-10-18T03:37:48;4.13;;;2.37;;
1136;SDS011;557;48.466;7.950;2022-10-18T03:40:34;6.23;;;3.07;;
1136;SDS011;557;48.466;7.950;2022-10-18T03:43:19;4.03;;;2.77;;
1136;SDS011;557;48.466;7.950;2022-10-18T03:46:06;4.10;;;2.80;;
1136;SDS011;557;48.466;7.950;2022-10-18T03:48:52;4.93;;;3.07;;
1136;SDS011;557;48.466;7.950;2022-10-18T03:51:38;3.50;;;3.10;;
1136;SDS011;557;48.466;7.950;2022-10-18T03:54:24;5.20;;;3.67;;
1136;SDS011;557;48.466;7.950;2022-10-18T03:57:10;3.53;;;2.83;;
1136;SDS011;557;48.466;7.950;2022-10-18T03:59:55;4.23;;;2.97;;
1136;SDS011;557;48.466;7.950;2022-10-18T04:02:42;4.80;;;3.07;;
1136;SDS011;557;48.466;7.950;2022-10-18T04:05:28;7.57;;;3.10;;
1136;SDS011;557;48.466;7.950;2022-10-18T04:08:14;4.80;;;3.50;;
1136;SDS011;557;48.466;7.950;2022-10-18T04:11:03;5.90;;;3.70;;
1136;SDS011;557;48.466;7.950;2022-10-18T04:13:51;4.10;;;3.60;;
1136;SDS011;557;48.466;7.950;2022-10-18T04:16:36;10.33;;;3.93;;
1136;SDS011;557;48.466;7.950;2022-10-18T04:19:23;7.50;;;3.57;;
1136;SDS011;557;48.466;7.950;2022-10-18T04:22:10;4.40;;;3.97;;
1136;SDS011;557;48.466;7.950;2022-10-18T04:24:56;5.00;;;4.37;;
1136;SDS011;557;48.466;7.950;2022-10-18T04:27:41;4.90;;;3.47;;
1136;SDS011;557;48.466;7.950;2022-10-18T04:30:27;4.90;;;3.10;;
1136;SDS011;557;48.466;7.950;2022-10-18T04:33:13;5.80;;;2.77;;
1136;SDS011;557;48.466;7.950;2022-10-18T04:36:00;4.30;;;2.83;;
1136;SDS011;557;48.466;7.950;2022-10-18T04:38:46;4.10;;;3.03;;
1136;SDS011;557;48.466;7.950;2022-10-18T04:41:31;3.20;;;2.40;;
1136;SDS011;557;48.466;7.950;2022-10-18T04:44:17;3.97;;;2.73;;
1136;SDS011;557;48.466;7.950;2022-10-18T04:47:02;3.53;;;2.67;;
1136;SDS011;557;48.466;7.950;2022-10-18T04:49:48;4.80;;;3.13;;
1136;SDS011;557;48.466;7.950;2022-10-18T04:52:35;3.90;;;2.67;;
1136;SDS011;557;48.466;7.950;2022-10-18T04:55:20;3.80;;;3.23;;
1136;SDS011;557;48.466;7.950;2022-10-18T04:58:06;4.70;;;2.63;;
1136;SDS011;557;48.466;7.950;2022-10-18T05:00:51;4.90;;;3.00;;
1136;SDS011;557;48.466;7.950;2022-10-18T05:03:37;5.43;;;3.27;;
1136;SDS011;557;48.466;7.950;2022-10-18T05:06:23;5.00;;;3.50;;
1136;SDS011;557;48.466;7.950;2022-10-18T05:09:09;3.80;;;3.13;;
1136;SDS011;557;48.466;7.950;2022-10-18T05:11:55;3.27;;;2.80;;
1136;SDS011;557;48.466;7.950;2022-10-18T05:14:41;4.30;;;2.97;;
1136;SDS011;557;48.466;7.950;2022-10-18T05:17:27;3.90;;;2.80;;
1136;SDS011;557;48.466;7.950;2022-10-18T05:20:12;4.30;;;2.73;;
1136;SDS011;557;48.466;7.950;2022-10-18T05:22:58;6.10;;;3.43;;
1136;SDS011;557;48.466;7.950;2022-10-18T05:25:45;4.17;;;3.13;;
1136;SDS011;557;48.466;7.950;2022-10-18T05:28:31;4.13;;;3.37;;
1136;SDS011;557;48.466;7.950;2022-10-18T05:31:17;5.50;;;3.53;;
1136;SDS011;557;48.466;7.950;2022-10-18T05:34:02;4.33;;;3.33;;
1136;SDS011;557;48.466;7.950;2022-10-18T05:36:48;5.17;;;3.80;;
1136;SDS011;557;48.466;7.950;2022-10-18T05:39:34;7.27;;;3.60;;
1136;SDS011;557;48.466;7.950;2022-10-18T05:42:22;5.37;;;3.80;;
1136;SDS011;557;48.466;7.950;2022-10-18T05:45:08;4.73;;;2.97;;
1136;SDS011;557;48.466;7.950;2022-10-18T05:47:54;6.13;;;3.23;;
1136;SDS011;557;48.466;7.950;2022-10-18T05:50:39;5.03;;;3.50;;
1136;SDS011;557;48.466;7.950;2022-10-18T05:53:24;5.27;;;3.20;;
1136;SDS011;557;48.466;7.950;2022-10-18T05:56:10;4.93;;;3.00;;
1136;SDS011;557;48.466;7.950;2022-10-18T05:58:58;4.10;;;3.40;;
1136;SDS011;557;48.466;7.950;2022-10-18T06:01:44;5.07;;;3.33;;
1136;SDS011;557;48.466;7.950;2022-10-18T06:04:29;4.70;;;3.57;;
1136;SDS011;557;48.466;7.950;2022-10-18T06:07:15;4.33;;;3.37;;
1136;SDS011;557;48.466;7.950;2022-10-18T06:10:02;6.60;;;3.77;;
1136;SDS011;557;48.466;7.950;2022-10-18T06:12:48;4.33;;;3.10;;
1136;SDS011;557;48.466;7.950;2022-10-18T06:15:35;4.63;;;3.57;;
1136;SDS011;557;48.466;7.950;2022-10-18T06:18:21;5.80;;;3.33;;
1136;SDS011;557;48.466;7.950;2022-10-18T06:21:07;5.77;;;3.60;;
1136;SDS011;557;48.466;7.950;2022-10-18T06:23:53;4.47;;;3.23;;
1136;SDS011;557;48.466;7.950;2022-10-18T06:26:40;5.90;;;3.50;;
1136;SDS011;557;48.466;7.950;2022-10-18T06:29:26;5.10;;;3.00;;
1136;SDS011;557;48.466;7.950;2022-10-18T06:32:13;4.00;;;3.23;;
1136;SDS011;557;48.466;7.950;2022-10-18T06:34:58;4.53;;;3.50;;
1136;SDS011;557;48.466;7.950;2022-10-18T06:37:44;6.03;;;3.60;;
1136;SDS011;557;48.466;7.950;2022-10-18T06:40:29;5.90;;;3.60;;
1136;SDS011;557;48.466;7.950;2022-10-18T06:43:21;4.57;;;3.47;;
1136;SDS011;557;48.466;7.950;2022-10-18T06:46:07;5.20;;;3.30;;
1136;SDS011;557;48.466;7.950;2022-10-18T06:48:54;8.87;;;3.83;;
1136;SDS011;557;48.466;7.950;2022-10-18T06:51:40;4.43;;;3.37;;
1136;SDS011;557;48.466;7.950;2022-10-18T06:54:33;3.53;;;3.00;;
1136;SDS011;557;48.466;7.950;2022-10-18T06:57:19;4.40;;;3.60;;
1136;SDS011;557;48.466;7.950;2022-10-18T07:00:05;4.77;;;3.43;;
1136;SDS011;557;48.466;7.950;2022-10-18T07:02:51;4.13;;;3.20;;
1136;SDS011;557;48.466;7.950;2022-10-18T07:05:38;3.40;;;2.80;;
1136;SDS011;557;48.466;7.950;2022-10-18T07:08:24;5.17;;;3.67;;
1136;SDS011;557;48.466;7.950;2022-10-18T07:11:12;6.93;;;3.87;;
1136;SDS011;557;48.466;7.950;2022-10-18T07:14:00;6.10;;;4.10;;
1136;SDS011;557;48.466;7.950;2022-10-18T07:16:47;6.87;;;3.57;;
1136;SDS011;557;48.466;7.950;2022-10-18T07:19:33;6.37;;;4.40;;
1136;SDS011;557;48.466;7.950;2022-10-18T07:22:19;8.50;;;4.30;;
1136;SDS011;557;48.466;7.950;2022-10-18T07:25:05;6.10;;;4.30;;
1136;SDS011;557;48.466;7.950;2022-10-18T07:27:57;4.70;;;3.10;;
1136;SDS011;557;48.466;7.950;2022-10-18T07:30:43;6.23;;;4.00;;
1136;SDS011;557;48.466;7.950;2022-10-18T07:33:28;5.60;;;3.50;;
1136;SDS011;557;48.466;7.950;2022-10-18T07:36:15;5.23;;;3.73;;
1136;SDS011;557;48.466;7.950;2022-10-18T07:39:02;5.53;;;3.53;;
1136;SDS011;557;48.466;7.950;2022-10-18T07:41:48;7.53;;;3.70;;
1136;SDS011;557;48.466;7.950;2022-10-18T07:44:34;4.20;;;3.77;;
1136;SDS011;557;48.466;7.950;2022-10-18T07:47:19;6.20;;;4.00;;
1136;SDS011;557;48.466;7.950;2022-10-18T07:50:05;4.67;;;3.70;;
1136;SDS011;557;48.466;7.950;2022-10-18T07:52:52;4.27;;;3.63;;
1136;SDS011;557;48.466;7.950;2022-10-18T07:55:39;4.90;;;3.83;;
1136;SDS011;557;48.466;7.950;2022-10-18T07:58:24;6.27;;;3.70;;
1136;SDS011;557;48.466;7.950;2022-10-18T08:01:10;5.77;;;3.93;;
1136;SDS011;557;48.466;7.950;2022-10-18T08:03:57;6.33;;;4.10;;
1136;SDS011;557;48.466;7.950;2022-10-18T08:06:43;6.30;;;3.80;;
1136;SDS011;557;48.466;7.950;2022-10-18T08:09:30;4.33;;;2.80;;
1136;SDS011;557;48.466;7.950;2022-10-18T08:12:17;4.43;;;3.20;;
1136;SDS011;557;48.466;7.950;2022-10-18T08:15:03;6.43;;;4.10;;
1136;SDS011;557;48.466;7.950;2022-10-18T08:17:49;6.33;;;4.00;;
1136;SDS011;557;48.466;7.950;2022-10-18T08:20:35;5.60;;;3.87;;
1136;SDS011;557;48.466;7.950;2022-10-18T08:23:20;4.20;;;3.37;;
1136;SDS011;557;48.466;7.950;2022-10-18T08:26:08;5.20;;;3.40;;
1136;SDS011;557;48.466;7.950;2022-10-18T08:28:56;3.80;;;3.33;;
1136;SDS011;557;48.466;7.950;2022-10-18T08:31:42;6.33;;;3.80;;
1136;SDS011;557;48.466;7.950;2022-10-18T08:34:28;6.97;;;3.77;;
1136;SDS011;557;48.466;7.950;2022-10-18T08:37:13;5.83;;;3.40;;
1136;SDS011;557;48.466;7.950;2022-10-18T08:39:59;6.00;;;3.80;;
1136;SDS011;557;48.466;7.950;2022-10-18T08:42:51;4.80;;;3.20;;
1136;SDS011;557;48.466;7.950;2022-10-18T08:45:45;5.40;;;4.17;;
1136;SDS011;557;48.466;7.950;2022-10-18T08:48:34;3.80;;;3.43;;
1136;SDS011;557;48.466;7.950;2022-10-18T08:51:25;4.30;;;3.50;;
1136;SDS011;557;48.466;7.950;2022-10-18T08:54:19;4.90;;;3.30;;
1136;SDS011;557;48.466;7.950;2022-10-18T08:57:10;5.67;;;4.37;;
1136;SDS011;557;48.466;7.950;2022-10-18T08:59:58;4.60;;;3.60;;
1136;SDS011;557;48.466;7.950;2022-10-18T09:02:51;4.93;;;4.10;;
1136;SDS011;557;48.466;7.950;2022-10-18T09:05:49;4.50;;;3.53;;
1136;SDS011;557;48.466;7.950;2022-10-18T09:08:39;4.13;;;3.53;;
1136;SDS011;557;48.466;7.950;2022-10-18T09:11:38;4.97;;;3.57;;
1136;SDS011;557;48.466;7.950;2022-10-18T09:17:52;5.47;;;4.10;;
1136;SDS011;557;48.466;7.950;2022-10-18T09:20:48;4.00;;;3.47;;
1136;SDS011;557;48.466;7.950;2022-10-18T09:23:46;4.90;;;3.33;;
1136;SDS011;557;48.466;7.950;2022-10-18T09:26:36;5.30;;;4.30;;
1136;SDS011;557;48.466;7.950;2022-10-18T09:29:32;5.20;;;4.20;;
1136;SDS011;557;48.466;7.950;2022-10-18T09:32:31;4.50;;;4.10;;
1136;SDS011;557;48.466;7.950;2022-10-18T09:35:28;7.73;;;4.43;;
1136;SDS011;557;48.466;7.950;2022-10-18T09:38:18;4.53;;;4.13;;
1136;SDS011;557;48.466;7.950;2022-10-18T09:41:09;4.13;;;3.77;;
1136;SDS011;557;48.466;7.950;2022-10-18T09:44:01;7.23;;;4.07;;
1136;SDS011;557;48.466;7.950;2022-10-18T09:46:51;5.20;;;4.70;;
1136;SDS011;557;48.466;7.950;2022-10-18T09:49:41;4.47;;;4.07;;
1136;SDS011;557;48.466;7.950;2022-10-18T09:52:33;5.90;;;4.20;;
1136;SDS011;557;48.466;7.950;2022-10-18T09:55:25;4.40;;;3.80;;
1136;SDS011;557;48.466;7.950;2022-10-18T09:58:14;4.30;;;3.90;;
1136;SDS011;557;48.466;7.950;2022-10-18T10:01:02;4.20;;;3.80;;
1136;SDS011;557;48.466;7.950;2022-10-18T10:03:48;4.70;;;4.20;;
1136;SDS011;557;48.466;7.950;2022-10-18T10:06:34;4.70;;;4.20;;
1136;SDS011;557;48.466;7.950;2022-10-18T10:09:25;6.43;;;4.10;;
1136;SDS011;557;48.466;7.950;2022-10-18T10:12:23;3.93;;;3.40;;
1136;SDS011;557;48.466;7.950;2022-10-18T10:15:17;4.73;;;4.30;;
1136;SDS011;557;48.466;7.950;2022-10-18T10:18:06;4.60;;;4.20;;
1136;SDS011;557;48.466;7.950;2022-10-18T10:21:03;4.47;;;4.17;;
1136;SDS011;557;48.466;7.950;2022-10-18T10:23:51;4.20;;;3.90;;
1136;SDS011;557;48.466;7.950;2022-10-18T10:26:40;5.63;;;5.23;;
1136;SDS011;557;48.466;7.950;2022-10-18T10:32:43;5.80;;;5.30;;
1136;SDS011;557;48.466;7.950;2022-10-18T10:35:30;5.87;;;5.50;;
1136;SDS011;557;48.466;7.950;2022-10-18T10:38:24;6.90;;;6.40;;
1136;SDS011;557;48.466;7.950;2022-10-18T10:41:17;5.80;;;5.40;;
1136;SDS011;557;48.466;7.950;2022-10-18T10:44:13;6.80;;;6.40;;
1136;SDS011;557;48.466;7.950;2022-10-18T10:47:01;7.20;;;6.80;;
1136;SDS011;557;48.466;7.950;2022-10-18T10:49:46;7.13;;;6.73;;
1136;SDS011;557;48.466;7.950;2022-10-18T10:52:32;7.83;;;7.33;;
1136;SDS011;557;48.466;7.950;2022-10-18T10:55:18;8.25;;;7.78;;
1136;SDS011;557;48.466;7.950;2022-10-18T10:58:13;8.10;;;7.70;;
1136;SDS011;557;48.466;7.950;2022-10-18T11:01:17;9.43;;;8.93;;
1136;SDS011;557;48.466;7.950;2022-10-18T11:07:15;8.83;;;8.43;;
1136;SDS011;557;48.466;7.950;2022-10-18T11:10:08;9.40;;;8.70;;
1136;SDS011;557;48.466;7.950;2022-10-18T11:13:01;9.07;;;8.57;;
1136;SDS011;557;48.466;7.950;2022-10-18T11:15:58;9.32;;;8.82;;
1136;SDS011;557;48.466;7.950;2022-10-18T11:18:49;8.70;;;8.20;;
1136;SDS011;557;48.466;7.950;2022-10-18T11:21:36;8.87;;;8.47;;
1136;SDS011;557;48.466;7.950;2022-10-18T11:24:24;8.90;;;8.40;;
1136;SDS011;557;48.466;7.950;2022-10-18T11:27:12;8.37;;;7.97;;
1136;SDS011;557;48.466;7.950;2022-10-18T11:30:13;9.05;;;8.55;;
1136;SDS011;557;48.466;7.950;2022-10-18T11:33:14;9.27;;;8.70;;
1136;SDS011;557;48.466;7.950;2022-10-18T11:36:09;9.55;;;8.77;;
1136;SDS011;557;48.466;7.950;2022-10-18T11:39:01;9.98;;;9.48;;
1136;SDS011;557;48.466;7.950;2022-10-18T11:41:54;9.60;;;9.10;;
1136;SDS011;557;48.466;7.950;2022-10-18T11:44:55;10.10;;;9.50;;
1136;SDS011;557;48.466;7.950;2022-10-18T11:47:53;9.68;;;9.00;;
1136;SDS011;557;48.466;7.950;2022-10-18T11:50:47;10.30;;;9.80;;
1136;SDS011;557;48.466;7.950;2022-10-18T11:53:40;10.25;;;9.75;;
1136;SDS011;557;48.466;7.950;2022-10-18T11:56:35;10.50;;;9.90;;
1136;SDS011;557;48.466;7.950;2022-10-18T11:59:27;10.20;;;9.70;;
1136;SDS011;557;48.466;7.950;2022-10-18T12:02:22;10.30;;;9.68;;
1136;SDS011;557;48.466;7.950;2022-10-18T12:05:17;9.83;;;9.33;;
1136;SDS011;557;48.466;7.950;2022-10-18T12:08:04;10.65;;;10.02;;
1136;SDS011;557;48.466;7.950;2022-10-18T12:10:56;10.38;;;9.85;;
1136;SDS011;557;48.466;7.950;2022-10-18T12:13:45;10.30;;;9.80;;
1136;SDS011;557;48.466;7.950;2022-10-18T12:16:33;10.65;;;10.05;;
1136;SDS011;557;48.466;7.950;2022-10-18T12:19:24;10.40;;;9.90;;
1136;SDS011;557;48.466;7.950;2022-10-18T12:22:12;10.70;;;10.20;;
1136;SDS011;557;48.466;7.950;2022-10-18T12:25:04;10.32;;;9.77;;
1136;SDS011;557;48.466;7.950;2022-10-18T12:27:56;10.90;;;10.30;;
1136;SDS011;557;48.466;7.950;2022-10-18T12:30:47;10.20;;;9.60;;
1136;SDS011;557;48.466;7.950;2022-10-18T12:33:38;10.63;;;10.03;;
1136;SDS011;557;48.466;7.950;2022-10-18T12:36:39;10.37;;;9.80;;
1136;SDS011;557;48.466;7.950;2022-10-18T12:39:39;9.97;;;9.47;;
1136;SDS011;557;48.466;7.950;2022-10-18T12:42:28;8.97;;;8.53;;
1136;SDS011;557;48.466;7.950;2022-10-18T12:45:28;10.23;;;9.63;;
1136;SDS011;557;48.466;7.950;2022-10-18T12:48:32;10.40;;;9.90;;
1136;SDS011;557;48.466;7.950;2022-10-18T12:51:21;10.23;;;9.73;;
1136;SDS011;557;48.466;7.950;2022-10-18T12:54:08;11.50;;;10.60;;
1136;SDS011;557;48.466;7.950;2022-10-18T12:56:55;11.20;;;10.60;;
1136;SDS011;557;48.466;7.950;2022-10-18T12:59:41;11.65;;;10.95;;
1136;SDS011;557;48.466;7.950;2022-10-18T13:02:31;11.82;;;11.23;;
1136;SDS011;557;48.466;7.950;2022-10-18T13:05:47;12.05;;;11.38;;
1136;SDS011;557;48.466;7.950;2022-10-18T13:08:40;12.20;;;11.52;;
1136;SDS011;557;48.466;7.950;2022-10-18T13:11:29;11.98;;;11.38;;
1136;SDS011;557;48.466;7.950;2022-10-18T13:14:30;12.20;;;11.60;;
1136;SDS011;557;48.466;7.950;2022-10-18T13:17:39;13.45;;;12.75;;
1136;SDS011;557;48.466;7.950;2022-10-18T13:20:31;13.18;;;12.48;;
1136;SDS011;557;48.466;7.950;2022-10-18T13:23:27;13.45;;;12.75;;
1136;SDS011;557;48.466;7.950;2022-10-18T13:26:24;12.80;;;12.20;;
1136;SDS011;557;48.466;7.950;2022-10-18T13:29:23;13.70;;;13.00;;
1136;SDS011;557;48.466;7.950;2022-10-18T13:32:30;13.50;;;12.80;;
1136;SDS011;557;48.466;7.950;2022-10-18T13:38:46;14.25;;;13.45;;
1136;SDS011;557;48.466;7.950;2022-10-18T13:48:46;16.88;;;15.50;;
1136;SDS011;557;48.466;7.950;2022-10-18T13:51:41;15.70;;;14.80;;
1136;SDS011;557;48.466;7.950;2022-10-18T13:54:39;16.00;;;15.10;;
1136;SDS011;557;48.466;7.950;2022-10-18T13:57:41;15.57;;;14.77;;
1136;SDS011;557;48.466;7.950;2022-10-18T14:00:39;16.73;;;15.93;;
1136;SDS011;557;48.466;7.950;2022-10-18T14:03:43;16.20;;;15.38;;
1136;SDS011;557;48.466;7.950;2022-10-18T14:06:49;16.05;;;15.25;;
1136;SDS011;557;48.466;7.950;2022-10-18T14:09:43;15.82;;;15.02;;
1136;SDS011;557;48.466;7.950;2022-10-18T14:12:33;16.25;;;15.45;;
1136;SDS011;557;48.466;7.950;2022-10-18T14:15:23;16.55;;;15.60;;
1136;SDS011;557;48.466;7.950;2022-10-18T14:18:11;16.95;;;16.05;;
1136;SDS011;557;48.466;7.950;2022-10-18T14:21:02;17.25;;;16.35;;
1136;SDS011;557;48.466;7.950;2022-10-18T14:23:51;17.42;;;16.52;;
1136;SDS011;557;48.466;7.950;2022-10-18T14:26:39;16.92;;;15.93;;
1136;SDS011;557;48.466;7.950;2022-10-18T14:29:25;16.77;;;15.98;;
1136;SDS011;557;48.466;7.950;2022-10-18T14:32:15;17.15;;;16.27;;
1136;SDS011;557;48.466;7.950;2022-10-18T14:35:14;16.60;;;15.80;;
1136;SDS011;557;48.466;7.950;2022-10-18T14:38:02;16.88;;;15.98;;
1136;SDS011;557;48.466;7.950;2022-10-18T14:40:55;18.15;;;17.08;;
1136;SDS011;557;48.466;7.950;2022-10-18T14:43:51;17.05;;;16.25;;
1136;SDS011;557;48.466;7.950;2022-10-18T14:46:40;17.50;;;16.60;;
1136;SDS011;557;48.466;7.950;2022-10-18T14:49:27;16.38;;;15.57;;
1136;SDS011;557;48.466;7.950;2022-10-18T14:52:14;16.20;;;15.40;;
1136;SDS011;557;48.466;7.950;2022-10-18T14:55:01;16.00;;;15.20;;
1136;SDS011;557;48.466;7.950;2022-10-18T14:57:47;16.60;;;15.60;;
1136;SDS011;557;48.466;7.950;2022-10-18T15:00:36;16.67;;;15.77;;
1136;SDS011;557;48.466;7.950;2022-10-18T15:03:22;16.85;;;15.85;;
1136;SDS011;557;48.466;7.950;2022-10-18T15:06:11;16.77;;;15.88;;
1136;SDS011;557;48.466;7.950;2022-10-18T15:09:02;16.52;;;15.43;;
1136;SDS011;557;48.466;7.950;2022-10-18T15:11:49;17.17;;;16.17;;
1136;SDS011;557;48.466;7.950;2022-10-18T15:14:38;15.98;;;15.07;;
1136;SDS011;557;48.466;7.950;2022-10-18T15:17:27;16.10;;;15.10;;
1136;SDS011;557;48.466;7.950;2022-10-18T15:20:19;16.05;;;15.15;;
1136;SDS011;557;48.466;7.950;2022-10-18T15:23:18;15.93;;;14.93;;
1136;SDS011;557;48.466;7.950;2022-10-18T15:26:07;14.85;;;14.00;;
1136;SDS011;557;48.466;7.950;2022-10-18T15:29:02;14.07;;;13.35;;
1136;SDS011;557;48.466;7.950;2022-10-18T15:31:48;14.27;;;13.48;;
1136;SDS011;557;48.466;7.950;2022-10-18T15:34:35;13.77;;;12.98;;
1136;SDS011;557;48.466;7.950;2022-10-18T15:37:26;12.88;;;12.10;;
1136;SDS011;557;48.466;7.950;2022-10-18T15:43:32;11.30;;;10.60;;
1136;SDS011;557;48.466;7.950;2022-10-18T15:46:28;10.77;;;10.10;;
1136;SDS011;557;48.466;7.950;2022-10-18T15:52:40;10.00;;;9.37;;
1136;SDS011;557;48.466;7.950;2022-10-18T15:55:46;9.93;;;9.37;;
1136;SDS011;557;48.466;7.950;2022-10-18T15:58:36;8.90;;;8.30;;
1136;SDS011;557;48.466;7.950;2022-10-18T16:01:26;8.55;;;7.95;;
1136;SDS011;557;48.466;7.950;2022-10-18T16:04:23;8.02;;;7.53;;
1136;SDS011;557;48.466;7.950;2022-10-18T16:07:10;7.65;;;7.05;;
1136;SDS011;557;48.466;7.950;2022-10-18T16:09:57;7.90;;;7.40;;
1136;SDS011;557;48.466;7.950;2022-10-18T16:12:43;6.97;;;6.40;;
1136;SDS011;557;48.466;7.950;2022-10-18T16:15:29;7.33;;;6.73;;
1136;SDS011;557;48.466;7.950;2022-10-18T16:18:16;6.30;;;5.90;;
1136;SDS011;557;48.466;7.950;2022-10-18T16:21:04;6.23;;;5.73;;
1136;SDS011;557;48.466;7.950;2022-10-18T16:23:50;6.13;;;5.63;;
1136;SDS011;557;48.466;7.950;2022-10-18T16:26:37;5.93;;;5.43;;
1136;SDS011;557;48.466;7.950;2022-10-18T16:29:23;6.30;;;5.90;;
1136;SDS011;557;48.466;7.950;2022-10-18T16:32:11;5.87;;;5.37;;
1136;SDS011;557;48.466;7.950;2022-10-18T16:34:57;6.00;;;5.50;;
1136;SDS011;557;48.466;7.950;2022-10-18T16:37:42;5.90;;;5.40;;
1136;SDS011;557;48.466;7.950;2022-10-18T16:40:28;5.83;;;5.00;;
1136;SDS011;557;48.466;7.950;2022-10-18T16:43:15;5.60;;;5.20;;
1136;SDS011;557;48.466;7.950;2022-10-18T16:46:01;5.90;;;5.40;;
1136;SDS011;557;48.466;7.950;2022-10-18T16:51:45;5.73;;;5.23;;
1136;SDS011;557;48.466;7.950;2022-10-18T16:54:31;5.53;;;5.07;;
1136;SDS011;557;48.466;7.950;2022-10-18T16:57:16;5.60;;;5.10;;
1136;SDS011;557;48.466;7.950;2022-10-18T17:00:04;5.67;;;5.03;;
1136;SDS011;557;48.466;7.950;2022-10-18T17:02:51;5.70;;;5.20;;
1136;SDS011;557;48.466;7.950;2022-10-18T17:05:36;6.03;;;4.90;;
1136;SDS011;557;48.466;7.950;2022-10-18T17:08:23;5.50;;;5.00;;
1136;SDS011;557;48.466;7.950;2022-10-18T17:11:10;5.43;;;5.00;;
1136;SDS011;557;48.466;7.950;2022-10-18T17:13:57;5.13;;;4.70;;
1136;SDS011;557;48.466;7.950;2022-10-18T17:16:43;4.70;;;4.30;;
1136;SDS011;557;48.466;7.950;2022-10-18T17:19:29;5.27;;;4.77;;
1136;SDS011;557;48.466;7.950;2022-10-18T17:22:16;7.90;;;5.13;;
1136;SDS011;557;48.466;7.950;2022-10-18T17:25:01;4.50;;;4.10;;
1136;SDS011;557;48.466;7.950;2022-10-18T17:27:47;5.60;;;4.20;;
1136;SDS011;557;48.466;7.950;2022-10-18T17:30:33;4.30;;;3.80;;
1136;SDS011;557;48.466;7.950;2022-10-18T17:33:20;4.27;;;3.73;;
1136;SDS011;557;48.466;7.950;2022-10-18T17:36:06;5.03;;;4.10;;
1136;SDS011;557;48.466;7.950;2022-10-18T17:38:52;4.40;;;3.70;;
1136;SDS011;557;48.466;7.950;2022-10-18T17:41:38;5.83;;;3.57;;
1136;SDS011;557;48.466;7.950;2022-10-18T17:44:24;4.03;;;3.60;;
1136;SDS011;557;48.466;7.950;2022-10-18T17:47:10;4.10;;;3.50;;
1136;SDS011;557;48.466;7.950;2022-10-18T17:49:57;4.53;;;4.10;;
1136;SDS011;557;48.466;7.950;2022-10-18T17:52:44;3.40;;;3.10;;
1136;SDS011;557;48.466;7.950;2022-10-18T17:55:47;4.00;;;3.33;;
1136;SDS011;557;48.466;7.950;2022-10-18T17:58:33;4.50;;;3.40;;
1136;SDS011;557;48.466;7.950;2022-10-18T18:01:20;6.67;;;3.40;;
1136;SDS011;557;48.466;7.950;2022-10-18T18:04:06;4.10;;;3.37;;
1136;SDS011;557;48.466;7.950;2022-10-18T18:06:53;4.10;;;3.23;;
1136;SDS011;557;48.466;7.950;2022-10-18T18:09:47;4.57;;;3.70;;
1136;SDS011;557;48.466;7.950;2022-10-18T18:12:33;3.83;;;3.43;;